createdAt,value
2022-11-18T00:01:04.061Z,2.4
2022-11-18T00:03:10.352Z,1.7
2022-11-18T00:05:13.426Z,2.2
2022-11-18T00:07:16.592Z,2.8
2022-11-18T00:09:19.730Z,2.5
2022-11-18T00:11:22.709Z,7.9
2022-11-18T00:13:25.800Z,3.4
2022-11-18T00:15:31.687Z,5.1
2022-11-18T00:17:35.181Z,3.7
2022-11-18T00:19:38.291Z,3.2
2022-11-18T00:21:41.359Z,3
2022-11-18T00:23:44.453Z,3.8
2022-11-18T00:25:47.552Z,5.5
2022-11-18T00:27:50.634Z,2.3
2022-11-18T00:29:53.754Z,2
2022-11-18T00:34:03.129Z,2.6
2022-11-18T00:36:06.208Z,2.3
2022-11-18T00:39:12.466Z,4.1
2022-11-18T00:41:15.553Z,3.9
2022-11-18T00:43:18.649Z,4.5
2022-11-18T00:45:25.870Z,2.6
2022-11-18T00:47:28.945Z,1.6
2022-11-18T00:49:32.074Z,3.7
2022-11-18T00:51:35.169Z,3.1
2022-11-18T00:53:38.258Z,3.8
2022-11-18T00:55:41.355Z,2.1
2022-11-18T00:57:44.437Z,3.3
2022-11-18T00:59:50.752Z,2.1
2022-11-18T01:01:53.988Z,3.2
2022-11-18T01:03:56.950Z,2.1
2022-11-18T01:06:00.070Z,2.6
2022-11-18T01:08:03.150Z,2.3
2022-11-18T01:10:06.226Z,1.8
2022-11-18T01:12:09.310Z,2.5
2022-11-18T01:14:15.610Z,2.1
2022-11-18T01:16:18.723Z,2.6
2022-11-18T01:18:21.826Z,2.6
2022-11-18T01:20:24.927Z,3.9
2022-11-18T01:22:28.007Z,3.9
2022-11-18T01:24:31.080Z,2.6
2022-11-18T01:26:34.179Z,2.2
2022-11-18T01:28:40.489Z,1.5
2022-11-18T01:33:49.859Z,2.5
2022-11-18T01:37:56.005Z,1.3
2022-11-18T01:39:59.105Z,3.1
2022-11-18T01:42:05.379Z,1.8
2022-11-18T01:46:11.583Z,3.6
2022-11-18T01:48:14.661Z,2.2
2022-11-18T01:50:17.737Z,3.6
2022-11-18T01:52:20.833Z,1.9
2022-11-18T01:56:30.221Z,3.6
2022-11-18T01:58:33.310Z,2.3
2022-11-18T02:00:36.407Z,2.9
2022-11-18T02:02:39.476Z,2.7
2022-11-18T02:04:42.571Z,3.3
2022-11-18T02:06:45.642Z,2.4
2022-11-18T02:08:48.735Z,2.5
2022-11-18T02:10:55.054Z,2.8
2022-11-18T02:12:58.139Z,2.9
2022-11-18T02:15:01.206Z,4
2022-11-18T02:17:04.315Z,4.2
2022-11-18T02:19:07.391Z,2.6
2022-11-18T02:21:10.485Z,4.6
2022-11-18T02:23:13.588Z,2.6
2022-11-18T02:25:19.886Z,3.1
2022-11-18T02:27:22.974Z,2.3
2022-11-18T02:29:26.048Z,2.3
2022-11-18T02:31:50.118Z,2.8
2022-11-18T02:33:53.205Z,4
2022-11-18T02:35:56.505Z,2.1
2022-11-18T02:38:02.571Z,3.5
2022-11-18T02:40:05.664Z,2.4
2022-11-18T02:42:08.746Z,1.9
2022-11-18T02:46:14.907Z,2.2
2022-11-18T02:48:18.011Z,1.6
2022-11-18T02:50:21.104Z,1.5
2022-11-18T02:52:27.386Z,1.6
2022-11-18T02:56:33.566Z,2.3
2022-11-18T02:58:36.657Z,2.2
2022-11-18T03:00:39.770Z,1.3
2022-11-18T03:02:42.862Z,2.5
2022-11-18T03:04:45.944Z,2.1
2022-11-18T03:08:55.332Z,2.3
2022-11-18T03:10:58.435Z,2.4
2022-11-18T03:15:04.652Z,1.9
2022-11-18T03:17:07.719Z,2.5
2022-11-18T03:21:17.119Z,3.7
2022-11-18T03:23:20.205Z,2
2022-11-18T03:25:23.300Z,3.7
2022-11-18T03:32:35.722Z,5.4
2022-11-18T03:36:51.267Z,1.8
2022-11-18T03:38:49.771Z,1.2
2022-11-18T03:40:52.850Z,1.6
2022-11-18T03:42:55.947Z,2.9
2022-11-18T03:44:59.033Z,1.8
2022-11-18T03:47:02.137Z,2.6
2022-11-18T03:49:08.405Z,2.5
2022-11-18T03:51:11.520Z,2.6
2022-11-18T03:53:14.619Z,2.1
2022-11-18T03:55:17.705Z,2.5
2022-11-18T03:57:20.826Z,1.7
2022-11-18T03:59:23.897Z,2.1
2022-11-18T04:01:27.023Z,2
2022-11-18T04:03:33.300Z,2.6
2022-11-18T04:05:36.410Z,2.8
2022-11-18T04:07:39.610Z,1.9
2022-11-18T04:09:42.616Z,2.7
2022-11-18T04:11:45.696Z,2.1
2022-11-18T04:13:48.800Z,3.4
2022-11-18T04:15:52.020Z,1.7
2022-11-18T04:17:58.199Z,2.8
2022-11-18T04:20:01.311Z,1.9
2022-11-18T04:23:07.582Z,2.4
2022-11-18T04:25:10.665Z,2.8
2022-11-18T04:27:13.745Z,3.8
2022-11-18T04:29:17.168Z,2.3
2022-11-18T04:33:26.286Z,2.5
2022-11-18T04:35:29.391Z,2.9
2022-11-18T04:39:35.562Z,2.3
2022-11-18T04:43:41.766Z,1.7
2022-11-18T04:45:48.212Z,2
2022-11-18T04:47:51.166Z,2.8
2022-11-18T04:49:54.254Z,1.8
2022-11-18T04:54:00.450Z,2.5
2022-11-18T04:56:03.577Z,2.1
2022-11-18T04:58:06.689Z,1.8
2022-11-18T05:00:12.979Z,1.9
2022-11-18T05:02:16.088Z,2
2022-11-18T05:04:19.188Z,2.5
2022-11-18T05:06:22.285Z,2.1
2022-11-18T05:08:25.382Z,2.3
2022-11-18T05:10:28.497Z,2.8
2022-11-18T05:12:31.618Z,3.1
2022-11-18T05:14:37.896Z,2.9
2022-11-18T05:16:40.981Z,3
2022-11-18T05:18:44.100Z,2.7
2022-11-18T05:19:47.242Z,2.9
2022-11-18T05:23:53.463Z,2.8
2022-11-18T05:26:01.273Z,2
2022-11-18T05:28:02.832Z,2.7
2022-11-18T05:30:05.910Z,2.2
2022-11-18T05:34:12.124Z,2.8
2022-11-18T05:36:15.224Z,3.5
2022-11-18T05:38:18.320Z,2.5
2022-11-18T05:40:21.412Z,3.2
2022-11-18T05:42:27.692Z,2.6
2022-11-18T05:44:30.785Z,3.8
2022-11-18T05:46:33.903Z,2.7
2022-11-18T05:48:37.016Z,2.8
2022-11-18T05:50:40.157Z,2.2
2022-11-18T05:52:43.254Z,2.8
2022-11-18T05:54:46.322Z,3.3
2022-11-18T05:56:52.639Z,2.9
2022-11-18T05:58:55.725Z,3.3
2022-11-18T06:00:58.830Z,2.4
2022-11-18T06:03:02.002Z,3.8
2022-11-18T06:05:05.051Z,2.9
2022-11-18T06:07:08.184Z,2.7
2022-11-18T06:09:11.231Z,2.7
2022-11-18T06:11:17.532Z,4.7
2022-11-18T06:13:20.643Z,3.2
2022-11-18T06:15:23.751Z,3.8
2022-11-18T06:19:51.145Z,3.2
2022-11-18T06:21:54.199Z,3.5
2022-11-18T06:26:03.644Z,3.5
2022-11-18T06:28:06.742Z,3.2
2022-11-18T06:30:09.838Z,3.2
2022-11-18T06:32:12.947Z,4.1
2022-11-18T06:34:16.032Z,3.5
2022-11-18T06:36:19.140Z,3.5
2022-11-18T06:38:25.432Z,3.2
2022-11-18T06:42:31.636Z,4.4
2022-11-18T06:44:34.801Z,5
2022-11-18T06:46:37.828Z,5
2022-11-18T06:48:40.940Z,5.4
2022-11-18T06:50:44.029Z,7.6
2022-11-18T06:52:50.329Z,5
2022-11-18T06:54:53.421Z,5.3
2022-11-18T06:56:56.529Z,4.3
2022-11-18T06:58:59.624Z,5
2022-11-18T07:01:02.863Z,6
2022-11-18T07:03:05.852Z,5.9
2022-11-18T07:05:08.942Z,4.3
2022-11-18T07:07:15.291Z,4.5
2022-11-18T07:11:21.379Z,4.2
2022-11-18T07:12:24.533Z,6
2022-11-18T07:14:27.633Z,6.4
2022-11-18T07:16:30.740Z,4.2
2022-11-18T07:18:33.846Z,5.7
2022-11-18T07:20:40.123Z,6.6
2022-11-18T07:22:43.242Z,7.3
2022-11-18T07:24:46.315Z,5.3
2022-11-18T07:26:49.417Z,5.4
2022-11-18T07:28:52.497Z,5.7
2022-11-18T07:30:55.618Z,6.1
2022-11-18T07:32:58.718Z,7.2
2022-11-18T07:35:04.992Z,7.6
2022-11-18T07:37:08.067Z,8.4
2022-11-18T07:39:11.177Z,6.9
2022-11-18T07:41:14.270Z,6.8
2022-11-18T07:43:17.379Z,6.8
2022-11-18T07:45:20.480Z,7
2022-11-18T07:47:23.567Z,7
2022-11-18T07:51:32.975Z,6.4
2022-11-18T07:53:36.084Z,4.9
2022-11-18T07:55:39.202Z,6.2
2022-11-18T07:57:42.286Z,7.1
2022-11-18T07:59:45.379Z,6.6
2022-11-18T08:03:54.776Z,6.3
2022-11-18T08:05:57.902Z,7.7
2022-11-18T08:09:04.169Z,5.5
2022-11-18T08:11:07.295Z,6.5
2022-11-18T08:13:10.378Z,5.5
2022-11-18T08:15:13.466Z,5.3
2022-11-18T08:19:22.901Z,5.6
2022-11-18T08:21:26.025Z,5.5
2022-11-18T08:23:33.130Z,7
2022-11-18T08:25:32.247Z,6.8
2022-11-18T08:27:35.328Z,6.2
2022-11-18T08:29:38.443Z,6.1
2022-11-18T08:31:44.760Z,5.1
2022-11-18T08:33:47.906Z,6.2
2022-11-18T08:35:50.994Z,4.4
2022-11-18T08:37:54.116Z,5.9
2022-11-18T08:39:57.193Z,4
2022-11-18T08:42:00.304Z,3.3
2022-11-18T08:44:03.422Z,4.3
2022-11-18T08:46:09.752Z,3
2022-11-18T08:48:12.862Z,5
2022-11-18T08:50:15.958Z,2.5
2022-11-18T08:52:19.062Z,2.1
2022-11-18T08:54:22.172Z,2.5
2022-11-18T08:56:25.289Z,1.8
2022-11-18T08:58:28.415Z,2.2
2022-11-18T09:00:34.740Z,3.2
2022-11-18T09:05:44.128Z,1.1
2022-11-18T09:09:50.360Z,2.1
2022-11-18T09:16:02.914Z,0.8
2022-11-18T09:18:06.026Z,2.1
2022-11-18T09:22:12.281Z,1.3
2022-11-18T09:24:15.637Z,0.9
2022-11-18T09:26:18.498Z,1.5
2022-11-18T09:36:38.962Z,1.4
2022-11-18T09:38:41.929Z,0.5
2022-11-18T09:40:45.056Z,1.6
2022-11-18T09:46:57.632Z,2.2
2022-11-18T09:51:03.877Z,0.7
2022-11-18T09:53:07.009Z,1.3
2022-11-18T09:55:10.140Z,1.6
2022-11-18T10:03:52.504Z,1.9
2022-11-18T10:05:55.635Z,0.9
2022-11-18T10:07:58.749Z,0.6
2022-11-18T10:10:05.064Z,1.2
2022-11-18T10:12:08.195Z,1.1
2022-11-18T10:14:11.336Z,1.3
2022-11-18T10:16:14.458Z,1.5
2022-11-18T10:18:37.943Z,1.3
2022-11-18T10:20:20.711Z,0.6
2022-11-18T10:22:24.629Z,0.6
2022-11-18T10:24:30.174Z,0.7
2022-11-18T10:26:33.287Z,0.3
2022-11-18T10:28:36.386Z,0.2
2022-11-18T10:30:39.508Z,1.6
2022-11-18T10:32:42.646Z,3.7
2022-11-18T10:36:48.946Z,0.9
2022-11-18T10:38:55.246Z,1.1
2022-11-18T10:40:58.387Z,0.6
2022-11-18T10:47:07.764Z,1.4
2022-11-18T10:49:10.793Z,0.5
2022-11-18T10:51:13.815Z,0.4
2022-11-18T10:53:19.971Z,0.6
2022-11-18T10:55:23.008Z,0.5
2022-11-18T10:57:26.054Z,0.3
2022-11-18T10:58:29.085Z,1.9
2022-11-18T11:00:32.129Z,0.5
2022-11-18T11:02:35.147Z,0.3
2022-11-18T11:04:38.416Z,0.2
2022-11-18T11:08:47.594Z,0.2
2022-11-18T11:10:52.796Z,0.6
2022-11-18T11:12:53.637Z,1.1
2022-11-18T11:14:56.670Z,0.5
2022-11-18T11:16:59.812Z,0.4
2022-11-18T11:19:02.715Z,0.2
2022-11-18T11:21:08.852Z,1.8
2022-11-18T11:23:11.889Z,0.7
2022-11-18T11:25:14.874Z,0.2
2022-11-18T11:29:21.026Z,0.3
2022-11-18T11:31:23.970Z,0.1
2022-11-18T11:33:26.972Z,0.2
2022-11-18T11:37:36.151Z,0.9
2022-11-18T11:41:42.191Z,0.4
2022-11-18T11:43:45.183Z,0.5
2022-11-18T11:45:48.213Z,0.4
2022-11-18T11:49:57.384Z,0.3
2022-11-18T11:52:00.404Z,0.9
2022-11-18T11:54:03.429Z,0.2
2022-11-18T11:55:06.490Z,0.8
2022-11-18T11:57:09.513Z,0.1
2022-11-18T11:59:12.537Z,0.2
2022-11-18T12:01:15.557Z,0.4
2022-11-18T12:03:21.701Z,0.3
2022-11-18T12:05:24.711Z,0.2
2022-11-18T12:07:27.807Z,0.7
2022-11-18T12:11:33.783Z,0.4
2022-11-18T12:13:36.796Z,0.7
2022-11-18T12:15:39.828Z,0.7
2022-11-18T12:17:46.051Z,1
2022-11-18T12:19:49.051Z,0.5
2022-11-18T12:21:52.061Z,0.4
2022-11-18T12:23:55.065Z,0.3
2022-11-18T12:25:58.077Z,0.3
2022-11-18T12:28:01.103Z,0.3
2022-11-18T12:32:10.300Z,0.6
2022-11-18T12:34:13.314Z,0.2
2022-11-18T12:36:16.327Z,1.9
2022-11-18T12:38:19.363Z,0.1
2022-11-18T12:40:22.409Z,0.3
2022-11-18T12:42:25.425Z,1.1
2022-11-18T12:44:28.583Z,1.1
2022-11-18T12:46:34.835Z,0.8
2022-11-18T12:48:37.871Z,0.6
2022-11-18T12:50:41.014Z,2.1
2022-11-18T12:51:44.053Z,1.2
2022-11-18T12:53:47.108Z,0.9
2022-11-18T12:55:50.129Z,1
2022-11-18T12:57:53.259Z,1.5
2022-11-18T12:59:59.611Z,1.4
2022-11-18T13:06:08.982Z,2
2022-11-18T13:08:12.128Z,1.2
2022-11-18T13:10:15.268Z,0.3
2022-11-18T13:12:18.406Z,0.4
2022-11-18T13:16:27.867Z,1.1
2022-11-18T13:18:31.060Z,0.8
2022-11-18T13:20:34.153Z,0.8
2022-11-18T13:22:37.289Z,0.7
2022-11-18T13:24:40.446Z,0.5
2022-11-18T13:26:43.569Z,1.3
2022-11-18T13:28:49.886Z,2.4
2022-11-18T13:30:53.011Z,1.6
2022-11-18T13:32:56.140Z,1.4
2022-11-18T13:34:59.273Z,1.4
2022-11-18T13:37:02.395Z,1
2022-11-18T13:39:05.535Z,2.1
2022-11-18T13:41:08.656Z,0.9
2022-11-18T13:43:14.999Z,3.5
2022-11-18T13:45:18.101Z,2.2
2022-11-18T13:47:21.254Z,2.6
2022-11-18T13:49:51.215Z,1.8
2022-11-18T13:51:54.163Z,3.5
2022-11-18T13:53:57.219Z,3
2022-11-18T13:56:03.578Z,2.4
2022-11-18T13:58:06.668Z,3.1
2022-11-18T14:00:09.778Z,2.4
2022-11-18T14:02:12.917Z,2.4
2022-11-18T14:04:16.014Z,3.2
2022-11-18T14:06:19.162Z,3
2022-11-18T14:08:22.287Z,1.4
2022-11-18T14:10:28.624Z,2.8
2022-11-18T14:12:31.733Z,3.5
2022-11-18T14:14:34.850Z,2.7
2022-11-18T14:16:37.965Z,3.4
2022-11-18T14:18:41.078Z,1.9
2022-11-18T14:20:44.213Z,2
2022-11-18T14:22:47.539Z,3.2
2022-11-18T14:24:53.687Z,4
2022-11-18T14:26:56.791Z,2.8
2022-11-18T14:28:59.920Z,2.6
2022-11-18T14:31:03.033Z,3.8
2022-11-18T14:33:06.149Z,1.8
2022-11-18T14:35:09.276Z,2.5
2022-11-18T14:37:12.413Z,3.4
2022-11-18T14:39:26.301Z,4.6
2022-11-18T14:41:21.864Z,4
2022-11-18T14:44:28.160Z,2.2
2022-11-18T14:48:34.420Z,1.8
2022-11-18T14:50:37.528Z,3.8
2022-11-18T14:54:47.332Z,2.7
2022-11-18T14:58:53.214Z,2.7
2022-11-18T15:00:56.400Z,5.5
2022-11-18T15:02:59.582Z,3.1
2022-11-18T15:05:02.628Z,3.7
2022-11-18T15:07:08.991Z,1.8
2022-11-18T15:09:12.060Z,3.7
2022-11-18T15:11:15.178Z,2.9
2022-11-18T15:13:18.303Z,4
2022-11-18T15:15:21.466Z,4.5
2022-11-18T15:21:34.005Z,2.6
2022-11-18T15:23:38.701Z,4.6
2022-11-18T15:25:41.781Z,5.4
2022-11-18T15:31:51.119Z,4.1
2022-11-18T15:33:54.234Z,3.7
2022-11-18T15:36:00.572Z,6.6
2022-11-18T15:38:03.726Z,4.4
2022-11-18T15:40:06.815Z,5.9
2022-11-18T15:43:13.085Z,5.5
2022-11-18T15:51:28.782Z,3.8
2022-11-18T15:53:31.908Z,4.2
2022-11-18T15:55:34.982Z,7.5
2022-11-18T15:57:38.137Z,8.6
2022-11-18T15:59:41.234Z,8.3
2022-11-18T16:01:44.432Z,7.2
2022-11-18T16:03:50.694Z,10.4
2022-11-18T16:05:53.824Z,10.5
2022-11-18T16:07:56.957Z,12.2
2022-11-18T16:10:00.056Z,10.1
2022-11-18T16:12:03.174Z,11.6
2022-11-18T16:14:06.300Z,9.6
2022-11-18T16:16:09.421Z,13.2
2022-11-18T16:18:15.734Z,13.1
2022-11-18T16:22:22.004Z,13.6
2022-11-18T16:26:28.274Z,11.4
2022-11-18T16:28:31.385Z,10.1
2022-11-18T16:30:34.502Z,9.8
2022-11-18T16:34:43.931Z,11.8
2022-11-18T16:36:47.027Z,9.1
2022-11-18T16:37:50.212Z,11.8
2022-11-18T16:39:53.325Z,9.4
2022-11-18T16:43:59.985Z,7
2022-11-18T16:46:11.665Z,6.3
2022-11-18T16:48:09.422Z,5.5
2022-11-18T16:50:12.576Z,6.7
2022-11-18T16:52:15.656Z,6.7
2022-11-18T16:56:21.905Z,6.9
2022-11-18T16:58:25.015Z,7.1
2022-11-18T17:00:58.343Z,9.1
2022-11-18T17:02:34.521Z,9.8
2022-11-18T17:04:37.598Z,6.6
2022-11-18T17:06:40.833Z,6.7
2022-11-18T17:08:43.825Z,7
2022-11-18T17:10:46.941Z,8.1
2022-11-18T17:12:50.033Z,8.9
2022-11-18T17:14:56.333Z,7.1
2022-11-18T17:16:59.472Z,7.8
2022-11-18T17:19:05.848Z,8
2022-11-18T17:21:05.591Z,7.3
2022-11-18T17:23:08.696Z,8.7
2022-11-18T17:25:11.776Z,8
2022-11-18T17:27:14.887Z,8
2022-11-18T17:29:21.773Z,8.1
2022-11-18T17:31:24.310Z,8.3
2022-11-18T17:33:27.405Z,7.1
2022-11-18T17:35:51.155Z,9.7
2022-11-18T17:42:03.751Z,11.3
2022-11-18T17:44:06.731Z,8.9
2022-11-18T17:48:12.911Z,9.9
2022-11-18T17:50:15.997Z,9.8
2022-11-18T17:52:19.084Z,13.6
2022-11-18T17:54:22.643Z,11.7
2022-11-18T17:56:28.653Z,12.3
2022-11-18T17:58:31.629Z,9.9
2022-11-18T18:00:34.685Z,14
2022-11-18T18:02:37.795Z,13.9
2022-11-18T18:04:40.859Z,11.3
2022-11-18T18:06:43.983Z,10.4
2022-11-18T18:08:47.064Z,12.5
2022-11-18T18:10:53.373Z,10.7
2022-11-18T18:12:56.475Z,15.8
2022-11-18T18:14:59.559Z,12.9
2022-11-18T18:17:02.645Z,11.9
2022-11-18T18:19:05.747Z,13.4
2022-11-18T18:21:12.868Z,9.9
2022-11-18T18:23:11.868Z,11.5
2022-11-18T18:25:18.198Z,13.4
2022-11-18T18:30:27.529Z,12.8
2022-11-18T18:32:30.597Z,12.9
2022-11-18T18:36:36.771Z,10.8
2022-11-18T18:38:43.071Z,9.8
2022-11-18T18:40:46.127Z,13.2
2022-11-18T18:42:49.242Z,12.5
2022-11-18T18:44:52.288Z,14
2022-11-18T18:46:55.361Z,12.3
2022-11-18T18:48:58.457Z,11.1
2022-11-18T18:51:01.537Z,12.7
2022-11-18T18:53:07.820Z,11.5
2022-11-18T18:55:10.897Z,13.3
2022-11-18T18:57:13.959Z,12.6
2022-11-18T18:59:17.023Z,13.3
2022-11-18T19:01:20.150Z,13.2
2022-11-18T19:03:23.235Z,13.3
2022-11-18T19:05:51.829Z,11.8
2022-11-18T19:07:32.605Z,10.8
2022-11-18T19:09:35.617Z,14.1
2022-11-18T19:11:38.743Z,12.6
2022-11-18T19:13:41.752Z,11.4
2022-11-18T19:15:44.940Z,11.4
2022-11-18T19:17:47.994Z,10.1
2022-11-18T19:19:50.985Z,13.4
2022-11-18T19:27:06.530Z,14.6
2022-11-18T19:29:09.598Z,12.4
2022-11-18T19:31:12.692Z,16.1
2022-11-18T19:33:15.740Z,12.3
2022-11-18T19:35:22.010Z,12.3
2022-11-18T19:37:25.068Z,12.5
2022-11-18T19:39:28.147Z,12.8
2022-11-18T19:41:31.200Z,11.4
2022-11-18T19:43:34.269Z,12.6
2022-11-18T19:49:46.689Z,11.4
2022-11-18T19:51:49.735Z,10.2
2022-11-18T19:53:57.074Z,12.7
2022-11-18T19:55:55.856Z,11.1
2022-11-18T19:57:58.928Z,8.7
2022-11-18T20:00:02.015Z,9.7
2022-11-18T20:02:05.023Z,10.7
2022-11-18T20:04:11.310Z,11.5
2022-11-18T20:06:14.358Z,10.8
2022-11-18T20:08:17.409Z,10.1
2022-11-18T20:10:20.464Z,7.6
2022-11-18T20:12:23.511Z,10.1
2022-11-18T20:16:29.611Z,10.4
2022-11-18T20:18:35.877Z,9.4
2022-11-18T20:20:38.921Z,9.3
2022-11-18T20:22:42.061Z,9.1
2022-11-18T20:23:45.147Z,10.2
2022-11-18T20:25:48.191Z,11.5
2022-11-18T20:27:51.248Z,10.3
2022-11-18T20:29:54.276Z,11
2022-11-18T20:32:00.532Z,7.6
2022-11-18T20:34:03.593Z,8.8
2022-11-18T20:36:06.625Z,10.1
2022-11-18T20:38:09.680Z,8.2
2022-11-18T20:40:12.718Z,12.1
2022-11-18T20:42:15.756Z,12.4
2022-11-18T20:44:18.812Z,10.2
2022-11-18T20:46:25.247Z,12.5
2022-11-18T20:48:28.125Z,11.8
2022-11-18T20:50:31.169Z,14.4
2022-11-18T20:52:34.208Z,12.6
2022-11-18T20:54:37.222Z,12.9
2022-11-18T20:56:40.267Z,11.5
2022-11-18T20:58:43.323Z,12.5
2022-11-18T21:00:49.600Z,12.9
2022-11-18T21:02:52.609Z,12.4
2022-11-18T21:04:55.669Z,14.7
2022-11-18T21:06:58.746Z,16.3
2022-11-18T21:09:01.717Z,12.6
2022-11-18T21:11:04.774Z,15
2022-11-18T21:13:07.813Z,12.5
2022-11-18T21:19:21.969Z,15.8
2022-11-18T21:21:51.580Z,14.2
2022-11-18T21:23:54.582Z,14.4
2022-11-18T21:25:57.790Z,14.3
2022-11-18T21:28:03.914Z,14.8
2022-11-18T21:30:06.948Z,15.5
2022-11-18T21:32:09.953Z,10.7
2022-11-18T21:34:13.000Z,15.1
2022-11-18T21:36:16.031Z,15.5
2022-11-18T21:40:22.107Z,14.7
2022-11-18T21:42:28.344Z,16.7
2022-11-18T21:44:31.375Z,13.9
2022-11-18T21:46:34.395Z,15.7
2022-11-18T21:48:37.413Z,15.6
2022-11-18T21:50:40.455Z,14.2
2022-11-18T21:52:43.481Z,14.6
2022-11-18T21:54:46.512Z,14.4
2022-11-18T21:56:52.761Z,23
2022-11-18T21:58:55.771Z,12.1
2022-11-18T22:00:58.803Z,14.3
2022-11-18T22:03:01.819Z,14
2022-11-18T22:05:04.843Z,15.7
2022-11-18T22:07:07.896Z,13.2
2022-11-18T22:09:10.872Z,11.8
2022-11-18T22:11:17.136Z,13.5
2022-11-18T22:13:20.145Z,14.3
2022-11-18T22:15:23.161Z,14
2022-11-18T22:16:26.284Z,15.5
2022-11-18T22:18:29.308Z,16.2
2022-11-18T22:20:32.319Z,12.6
2022-11-18T22:22:35.345Z,12.8
2022-11-18T22:24:41.634Z,16.6
2022-11-18T22:26:44.601Z,16
2022-11-18T22:28:47.644Z,13.1
2022-11-18T22:30:50.658Z,13.9
2022-11-18T22:32:53.696Z,8.7
2022-11-18T22:34:56.741Z,17
2022-11-18T22:36:59.753Z,21
2022-11-18T22:39:05.993Z,19.1
2022-11-18T22:41:09.012Z,14
2022-11-18T22:43:12.032Z,15.6
2022-11-18T22:45:15.110Z,13
2022-11-18T22:47:18.128Z,14.7
2022-11-18T22:49:21.557Z,13.1
2022-11-18T22:51:24.135Z,15.8
2022-11-18T22:53:30.374Z,12.1
2022-11-18T22:55:33.397Z,11.7
2022-11-18T22:57:36.427Z,11.3
2022-11-18T22:59:39.469Z,9
2022-11-18T23:01:42.479Z,8.2
2022-11-18T23:03:45.502Z,10.4
2022-11-18T23:05:48.511Z,20.7
2022-11-18T23:07:54.834Z,29.3
2022-11-18T23:12:00.826Z,16.8
2022-11-18T23:13:03.930Z,12.3
2022-11-18T23:15:06.939Z,16.2
2022-11-18T23:17:09.961Z,22.1
2022-11-18T23:19:12.991Z,21.4
2022-11-18T23:23:22.239Z,16.1
2022-11-18T23:29:31.310Z,19.8
2022-11-18T23:31:34.341Z,19.9
2022-11-18T23:33:37.344Z,18.6
2022-11-18T23:35:43.595Z,15.5
2022-11-18T23:37:46.640Z,15
2022-11-18T23:41:52.666Z,20
2022-11-18T23:43:55.701Z,15
2022-11-18T23:45:58.709Z,18.6
2022-11-18T23:48:01.746Z,22.4
2022-11-18T23:50:07.971Z,24.1
2022-11-18T23:54:14.016Z,15.7
2022-11-18T23:56:17.052Z,19.5
